Time;durP1;ratioP1;P1;durP2;ratioP2;P2;SDS_P1;SDS_P2;PMS_P1;PMS_P2;Temp;Humidity;BMP_temperature;BMP_pressure;BME280_temperature;BME280_humidity;BME280_pressure;Samples;Min_cycle;Max_cycle;Signal;HPM_P1;HPM_P2
2021/04/06 00:00:21;;;;;;;24.65;17.73;;;205.40;1817.60;;;;;;4839794;29;20035;-71
2021/04/06 00:02:52;;;;;;;22.90;17.08;;;205.40;1843.20;;;;;;4839446;29;20037;-70
2021/04/06 00:05:20;;;;;;;25.50;15.98;;;205.30;1843.20;;;;;;4842262;29;20471;-70
2021/04/06 00:07:50;;;;;;;22.00;16.77;;;205.30;1843.20;;;;;;4840718;29;20032;-70
2021/04/06 00:10:21;;;;;;;21.08;14.82;;;205.30;1868.80;;;;;;4843052;29;20084;-70
2021/04/06 00:12:52;;;;;;;22.30;16.30;;;205.30;1843.20;;;;;;4841308;29;20043;-70
2021/04/06 00:15:19;;;;;;;24.73;17.23;;;205.20;1868.80;;;;;;4837255;29;20042;-70
2021/04/06 00:17:47;;;;;;;24.23;15.85;;;205.20;1868.80;;;;;;4845830;29;20100;-70
2021/04/06 00:20:16;;;;;;;23.35;16.35;;;205.20;1868.80;;;;;;4839559;29;20105;-70
2021/04/06 00:22:43;;;;;;;25.75;17.08;;;205.20;1868.80;;;;;;4839226;29;20030;-70
2021/04/06 00:25:19;;;;;;;21.73;16.65;;;205.10;1894.40;;;;;;4840314;29;20026;-70
2021/04/06 00:27:47;;;;;;;26.33;17.88;;;205.10;1894.40;;;;;;4840349;29;20420;-70
2021/04/06 00:30:16;;;;;;;24.10;16.67;;;205.00;1894.40;;;;;;4848588;29;20030;-70
2021/04/06 00:32:43;;;;;;;26.92;17.77;;;205.00;1894.40;;;;;;4840897;29;20041;-70
2021/04/06 00:35:11;;;;;;;23.58;17.40;;;205.00;1894.40;;;;;;4850051;29;20033;-70
2021/04/06 00:37:48;;;;;;;25.30;16.55;;;204.90;1920.00;;;;;;4820725;29;20030;-70
2021/04/06 00:40:15;;;;;;;27.23;18.55;;;204.90;1920.00;;;;;;4844168;29;20025;-70
2021/04/06 00:42:42;;;;;;;22.63;16.98;;;204.90;1920.00;;;;;;4847896;29;20073;-70
2021/04/06 00:45:18;;;;;;;21.58;15.85;;;204.90;1920.00;;;;;;4858282;29;20112;-70
2021/04/06 00:47:45;;;;;;;24.63;16.25;;;204.90;1920.00;;;;;;4848404;29;20026;-70
2021/04/06 00:50:14;;;;;;;21.67;15.88;;;204.90;1920.00;;;;;;4851403;29;20069;-70
2021/04/06 00:52:44;;;;;;;24.38;15.02;;;204.90;1920.00;;;;;;4850986;29;20026;-70
2021/04/06 00:55:19;;;;;;;25.55;17.48;;;204.80;1920.00;;;;;;4844012;29;20025;-70
2021/04/06 00:57:46;;;;;;;24.42;17.23;;;204.80;1945.60;;;;;;4848676;29;20444;-70
2021/04/06 01:00:21;;;;;;;22.20;15.27;;;204.80;1945.60;;;;;;4842406;29;20029;-70
2021/04/06 01:03:08;;;;;;;23.65;15.73;;;204.80;1945.60;;;;;;4852910;29;20101;-70
2021/04/06 01:05:35;;;;;;;24.58;16.55;;;204.80;1945.60;;;;;;4847928;29;20025;-70
2021/04/06 01:08:05;;;;;;;23.88;16.23;;;180.10;1945.60;;;;;;4842581;29;20511;-70
2021/04/06 01:10:33;;;;;;;23.27;15.73;;;180.10;1945.60;;;;;;4847244;29;20037;-69
2021/04/06 01:12:59;;;;;;;23.30;16.17;;;180.10;1945.60;;;;;;4847200;29;20025;-69
2021/04/06 01:15:26;;;;;;;22.52;16.25;;;180.10;1945.60;;;;;;4847839;29;20080;-69
2021/04/06 01:17:53;;;;;;;21.73;15.55;;;180.00;1971.20;;;;;;4841485;29;20023;-69
2021/04/06 01:20:20;;;;;;;23.33;16.70;;;180.00;1971.20;;;;;;4835936;29;20063;-70
2021/04/06 01:22:49;;;;;;;21.10;14.90;;;180.00;1971.20;;;;;;4841518;29;20476;-71
2021/04/06 01:25:20;;;;;;;39.50;17.05;;;180.00;1971.20;;;;;;4841966;29;20057;-69
2021/04/06 01:27:46;;;;;;;21.25;15.35;;;180.00;1971.20;;;;;;4841427;29;20061;-69
2021/04/06 01:30:13;;;;;;;23.63;16.45;;;179.90;1971.20;;;;;;4840978;29;20026;-70
2021/04/06 01:32:39;;;;;;;25.45;15.43;;;179.90;1971.20;;;;;;4840741;29;20037;-69
2021/04/06 01:35:09;;;;;;;22.30;15.93;;;179.90;1971.20;;;;;;4840217;29;20026;-70
2021/04/06 01:37:36;;;;;;;25.15;17.48;;;179.80;1971.20;;;;;;4840409;29;20030;-69
2021/04/06 01:40:04;;;;;;;21.17;14.82;;;179.80;1971.20;;;;;;4840098;29;20049;-69
2021/04/06 01:42:34;;;;;;;24.60;16.30;;;179.80;1971.20;;;;;;4835135;29;20030;-69
2021/04/06 01:45:03;;;;;;;22.20;16.00;;;179.80;1971.20;;;;;;4839800;29;20030;-69
2021/04/06 01:47:29;;;;;;;22.30;16.05;;;179.80;1971.20;;;;;;4841240;29;20029;-70
2021/04/06 01:49:57;;;;;;;24.05;15.88;;;179.80;1971.20;;;;;;4838937;29;20030;-69
2021/04/06 01:52:23;;;;;;;19.23;15.45;;;179.80;1971.20;;;;;;4834458;29;20030;-69
2021/04/06 01:54:52;;;;;;;27.73;17.10;;;179.70;1971.20;;;;;;4836880;29;20030;-69
2021/04/06 01:57:29;;;;;;;25.73;16.90;;;179.80;1971.20;;;;;;4838016;29;20871;-69
2021/04/06 01:59:59;;;;;;;24.08;17.42;;;179.70;1971.20;;;;;;4837487;29;20118;-69
2021/04/06 02:02:27;;;;;;;22.30;15.48;;;179.70;1971.20;;;;;;4840296;29;20128;-69
2021/04/06 02:05:01;;;;;;;24.45;15.90;;;179.70;1971.20;;;;;;4840420;29;20476;-70
2021/04/06 02:07:35;;;;;;;20.05;15.40;;;179.70;1971.20;;;;;;4841068;29;20025;-69
2021/04/06 02:10:05;;;;;;;23.77;16.25;;;179.60;1971.20;;;;;;4840616;29;20037;-70
2021/04/06 02:12:37;;;;;;;21.90;16.33;;;179.70;1971.20;;;;;;4840087;29;20079;-69
2021/04/06 02:15:08;;;;;;;23.65;16.35;;;179.60;1971.20;;;;;;4824271;29;20045;-70
2021/04/06 02:17:49;;;;;;;23.70;17.10;;;179.60;1971.20;;;;;;4840763;29;20053;-69
2021/04/06 02:20:19;;;;;;;21.95;15.07;;;179.60;1971.20;;;;;;4841156;29;20504;-69
2021/04/06 02:23:03;;;;;;;23.10;16.17;;;179.60;1971.20;;;;;;4840678;29;20033;-69
2021/04/06 02:25:30;;;;;;;21.70;15.63;;;179.60;1996.80;;;;;;4840327;29;20034;-70
2021/04/06 02:27:56;;;;;;;22.73;15.10;;;179.60;1971.20;;;;;;4840755;29;20499;-69
2021/04/06 02:30:30;;;;;;;28.08;16.02;;;179.60;1971.20;;;;;;4841700;29;20126;-70
2021/04/06 02:33:00;;;;;;;23.10;16.27;;;179.60;1971.20;;;;;;4841192;29;20027;-70
2021/04/06 02:35:26;;;;;;;22.90;15.02;;;179.50;1996.80;;;;;;4840599;29;20030;-70
2021/04/06 02:37:53;;;;;;;24.98;15.85;;;179.50;1996.80;;;;;;4841107;29;20022;-70
2021/04/06 02:40:20;;;;;;;23.85;16.25;;;179.50;1996.80;;;;;;4822870;29;20101;-70
2021/04/06 02:42:47;;;;;;;25.88;18.13;;;179.50;1996.80;;;;;;4840486;29;20045;-70
2021/04/06 02:45:17;;;;;;;24.25;17.38;;;179.50;1996.80;;;;;;4841164;29;20795;-70
2021/04/06 02:47:47;;;;;;;21.13;14.93;;;179.50;1971.20;;;;;;4840054;29;20552;-70
2021/04/06 02:50:15;;;;;;;25.00;16.83;;;179.50;1996.80;;;;;;4841249;29;20018;-70
2021/04/06 02:52:41;;;;;;;23.58;16.73;;;179.50;1996.80;;;;;;4839950;29;20484;-69
2021/04/06 02:55:10;;;;;;;24.23;16.80;;;179.50;1996.80;;;;;;4840749;29;20026;-70
2021/04/06 02:57:50;;;;;;;22.38;16.77;;;179.50;1996.80;;;;;;4840033;29;20564;-69
2021/04/06 03:00:42;;;;;;;20.83;15.63;;;179.50;1996.80;;;;;;4840203;29;20213;-69
2021/04/06 03:03:25;;;;;;;21.42;15.15;;;179.60;1996.80;;;;;;4836462;29;20041;-69
2021/04/06 03:06:32;;;;;;;22.30;15.68;;;179.60;1996.80;;;;;;4835870;29;20062;-69
2021/04/06 03:08:59;;;;;;;22.92;16.40;;;179.60;1971.20;;;;;;4781262;29;20043;-69
2021/04/06 03:11:27;;;;;;;29.30;17.65;;;179.70;1971.20;;;;;;4785975;29;20039;-70
2021/04/06 03:13:53;;;;;;;22.02;15.57;;;179.70;1971.20;;;;;;4776829;30;20042;-70
2021/04/06 03:16:18;;;;;;;25.38;16.02;;;179.80;1971.20;;;;;;4786392;29;20047;-69
2021/04/06 03:18:44;;;;;;;21.80;14.93;;;179.80;1971.20;;;;;;4780852;29;20035;-69
2021/04/06 03:21:12;;;;;;;22.23;15.90;;;179.80;1971.20;;;;;;4784894;29;20031;-70
2021/04/06 03:23:38;;;;;;;24.27;15.68;;;179.90;1971.20;;;;;;4773917;29;20172;-70
2021/04/06 03:26:07;;;;;;;25.35;16.15;;;179.90;1945.60;;;;;;4782228;30;20054;-70
2021/04/06 03:28:39;;;;;;;25.15;15.82;;;179.90;1945.60;;;;;;4782597;29;20126;-70
2021/04/06 03:31:18;;;;;;;20.85;15.20;;;179.90;1971.20;;;;;;4781966;29;20070;-69
2021/04/06 03:33:46;;;;;;;26.58;18.13;;;180.00;1971.20;;;;;;4787469;29;20555;-69
2021/04/06 03:36:41;;;;;;;22.35;15.55;;;180.00;1971.20;;;;;;4792121;29;20416;-70
2021/04/06 03:39:08;;;;;;;23.05;15.77;;;180.00;1971.20;;;;;;4782719;29;20201;-70
2021/04/06 03:41:35;;;;;;;22.80;15.93;;;180.00;1971.20;;;;;;4784621;29;20027;-70
2021/04/06 03:44:11;;;;;;;22.65;17.25;;;180.00;1971.20;;;;;;4787371;29;20035;-70
2021/04/06 03:46:39;;;;;;;21.25;15.45;;;180.00;1971.20;;;;;;4793444;29;20031;-70
2021/04/06 03:49:18;;;;;;;26.05;16.80;;;180.00;1971.20;;;;;;4793819;29;20146;-69
2021/04/06 03:51:48;;;;;;;23.55;16.70;;;180.10;1971.20;;;;;;4789167;29;20031;-69
2021/04/06 03:54:39;;;;;;;23.75;16.85;;;180.10;1971.20;;;;;;4794308;29;20030;-70
2021/04/06 03:57:20;;;;;;;23.20;16.35;;;180.10;1971.20;;;;;;4793410;29;20461;-70
2021/04/06 03:59:46;;;;;;;27.13;16.75;;;180.00;1971.20;;;;;;4798641;29;20039;-70
2021/04/06 04:02:11;;;;;;;22.17;15.75;;;180.10;1971.20;;;;;;4794998;29;20527;-70
2021/04/06 04:04:38;;;;;;;21.00;14.95;;;204.80;1971.20;;;;;;4792964;29;20031;-71
2021/04/06 04:07:06;;;;;;;27.67;16.77;;;204.80;1971.20;;;;;;4797924;29;20118;-70
2021/04/06 04:09:32;;;;;;;23.80;16.65;;;204.90;1945.60;;;;;;4796189;29;20405;-70
2021/04/06 04:11:58;;;;;;;24.25;16.83;;;204.90;1945.60;;;;;;4799865;29;20041;-70
2021/04/06 04:14:24;;;;;;;24.65;15.02;;;204.90;1945.60;;;;;;4798205;29;20115;-70
2021/04/06 04:16:49;;;;;;;20.60;15.90;;;204.90;1945.60;;;;;;4828212;29;20037;-71
2021/04/06 04:19:15;;;;;;;24.58;17.17;;;205.00;1971.20;;;;;;4845660;29;20032;-71
2021/04/06 04:21:41;;;;;;;24.73;18.05;;;205.00;1945.60;;;;;;4845956;29;20049;-70
2021/04/06 04:24:07;;;;;;;23.77;16.73;;;204.90;1971.20;;;;;;4845706;29;20527;-71
2021/04/06 04:26:33;;;;;;;21.63;16.15;;;205.00;1971.20;;;;;;4844323;29;20057;-71
2021/04/06 04:28:59;;;;;;;24.70;15.40;;;205.00;1945.60;;;;;;4828678;29;20030;-71
2021/04/06 04:31:26;;;;;;;22.90;16.30;;;204.90;1971.20;;;;;;4845184;29;20026;-70
2021/04/06 04:33:51;;;;;;;20.50;15.30;;;204.90;1971.20;;;;;;4845846;29;20087;-70
2021/04/06 04:36:17;;;;;;;20.90;15.38;;;205.00;1945.60;;;;;;4844755;29;20038;-70
2021/04/06 04:38:43;;;;;;;22.92;16.50;;;205.00;1945.60;;;;;;4828839;29;20053;-70
2021/04/06 04:41:08;;;;;;;24.00;16.77;;;204.90;1945.60;;;;;;4829749;29;20037;-70
2021/04/06 04:43:34;;;;;;;25.95;17.40;;;205.00;1945.60;;;;;;4844997;29;20102;-70
2021/04/06 04:46:00;;;;;;;26.90;16.27;;;205.00;1945.60;;;;;;4844604;29;20105;-70
2021/04/06 04:48:26;;;;;;;20.90;15.63;;;205.10;1945.60;;;;;;4845427;29;20022;-70
2021/04/06 04:50:51;;;;;;;25.83;15.15;;;205.10;1971.20;;;;;;4844210;29;20097;-70
2021/04/06 04:53:17;;;;;;;25.33;17.67;;;205.10;1945.60;;;;;;4845097;29;20033;-70
2021/04/06 04:55:43;;;;;;;23.60;18.48;;;205.10;1945.60;;;;;;4844590;29;20041;-70
2021/04/06 04:58:10;;;;;;;25.17;17.45;;;205.10;1945.60;;;;;;4844748;29;20523;-70
2021/04/06 05:00:35;;;;;;;25.60;16.90;;;205.20;1945.60;;;;;;4844402;29;20030;-70
2021/04/06 05:03:01;;;;;;;26.98;17.40;;;205.10;1945.60;;;;;;4844429;29;20502;-71
2021/04/06 05:05:27;;;;;;;25.40;17.77;;;205.10;1945.60;;;;;;4844705;29;20471;-70
2021/04/06 05:07:52;;;;;;;27.23;16.77;;;205.00;1945.60;;;;;;4844288;29;20026;-71
2021/04/06 05:10:18;;;;;;;28.92;18.83;;;205.10;1971.20;;;;;;4844520;29;20121;-70
2021/04/06 05:12:48;;;;;;;28.65;18.15;;;205.00;1971.20;;;;;;4842038;29;20029;-70
2021/04/06 05:15:14;;;;;;;36.80;19.60;;;205.10;1945.60;;;;;;4827733;29;20045;-70
2021/04/06 05:17:40;;;;;;;31.83;19.15;;;205.10;1971.20;;;;;;4844340;29;20113;-70
2021/04/06 05:20:07;;;;;;;31.85;19.38;;;205.30;1945.60;;;;;;4828167;29;20452;-70
2021/04/06 05:22:34;;;;;;;38.78;22.73;;;205.40;1945.60;;;;;;4844315;29;20040;-70
2021/04/06 05:25:00;;;;;;;32.85;22.90;;;205.50;1945.60;;;;;;4826345;29;20387;-71
2021/04/06 05:27:26;;;;;;;29.55;20.70;;;205.60;1920.00;;;;;;4841659;29;20137;-70
2021/04/06 05:29:52;;;;;;;26.90;18.35;;;205.50;1894.40;;;;;;4841447;29;20029;-70
2021/04/06 05:32:18;;;;;;;28.58;18.95;;;230.40;1792.00;;;;;;4841449;29;20066;-70
2021/04/06 05:34:44;;;;;;;30.27;19.63;;;230.60;1740.80;;;;;;4841254;29;20030;-70
2021/04/06 05:37:10;;;;;;;28.45;19.52;;;230.80;1715.20;;;;;;4822782;29;20472;-70
2021/04/06 05:39:36;;;;;;;23.73;16.08;;;231.00;1715.20;;;;;;4841497;29;20058;-70
2021/04/06 05:42:02;;;;;;;21.33;13.68;;;231.20;1689.60;;;;;;4842019;29;20034;-70
2021/04/06 05:44:28;;;;;;;31.38;14.35;;;231.30;1689.60;;;;;;4841142;29;20109;-70
2021/04/06 05:46:57;;;;;;;21.42;11.98;;;231.20;1740.80;;;;;;4841106;29;20030;-69
2021/04/06 05:49:25;;;;;;;15.65;8.98;;;231.00;1792.00;;;;;;4842026;29;20030;-70
2021/04/06 05:51:53;;;;;;;14.63;7.35;;;230.90;1817.60;;;;;;4834130;29;20420;-70
2021/04/06 05:54:18;;;;;;;16.50;7.47;;;230.80;1868.80;;;;;;4845341;29;20527;-70
2021/04/06 05:56:44;;;;;;;17.30;6.90;;;230.60;1894.40;;;;;;4841164;29;20121;-70
2021/04/06 05:59:11;;;;;;;22.08;6.72;;;230.60;1894.40;;;;;;4825285;29;20076;-70
2021/04/06 06:01:39;;;;;;;24.90;6.80;;;230.50;1920.00;;;;;;4841262;29;20030;-70
2021/04/06 06:04:11;;;;;;;30.13;8.48;;;230.40;1920.00;;;;;;4842370;29;20082;-70
2021/04/06 06:06:37;;;;;;;21.60;5.32;;;205.70;1920.00;;;;;;4841748;29;20049;-71
2021/04/06 06:09:04;;;;;;;10.68;2.60;;;205.50;1868.80;;;;;;4841643;29;20034;-71
2021/04/06 06:11:31;;;;;;;20.38;3.72;;;205.30;1843.20;;;;;;4841950;29;20058;-71
2021/04/06 06:13:58;;;;;;;10.38;3.60;;;205.20;1868.80;;;;;;4824186;29;20073;-71
2021/04/06 06:16:28;;;;;;;40.47;6.00;;;205.10;1843.20;;;;;;4842002;29;20026;-71
2021/04/06 06:19:04;;;;;;;15.40;3.95;;;205.00;1868.80;;;;;;4840218;29;20084;-71
2021/04/06 06:21:37;;;;;;;;;;;205.00;1868.80;;;;;;4839670;29;20041;-71
2021/04/06 06:24:05;;;;;;;9.07;2.83;;;205.00;1868.80;;;;;;4841719;29;20003;-70
2021/04/06 06:26:30;;;;;;;5.65;2.72;;;204.90;1868.80;;;;;;4840791;29;20045;-70
2021/04/06 06:29:10;;;;;;;12.02;3.65;;;180.10;1894.40;;;;;;4842114;29;20030;-71
2021/04/06 06:31:42;;;;;;;12.38;3.78;;;204.80;1868.80;;;;;;4839003;29;20487;-70
2021/04/06 06:34:27;;;;;;;11.50;2.70;;;204.90;1868.80;;;;;;4838908;29;20066;-71
2021/04/06 06:37:08;;;;;;;13.13;2.90;;;205.00;1868.80;;;;;;4840382;29;20094;-70
2021/04/06 06:39:35;;;;;;;15.93;4.32;;;205.00;1868.80;;;;;;4839893;29;20504;-70
2021/04/06 06:42:07;;;;;;;15.75;4.70;;;205.00;1868.80;;;;;;4839796;29;20121;-71
2021/04/06 06:44:33;;;;;;;24.48;8.27;;;204.90;1894.40;;;;;;4840066;29;20762;-71
2021/04/06 06:47:18;;;;;;;11.40;4.72;;;204.90;1894.40;;;;;;4839431;29;20057;-70
2021/04/06 06:49:44;;;;;;;11.00;4.93;;;204.90;1868.80;;;;;;4834001;29;20033;-70
2021/04/06 06:52:22;;;;;;;14.10;5.10;;;204.80;1894.40;;;;;;4823016;29;20045;-70
2021/04/06 06:54:56;;;;;;;18.02;7.10;;;204.80;1894.40;;;;;;4839402;29;20066;-71
2021/04/06 06:57:26;;;;;;;12.50;4.47;;;180.00;1894.40;;;;;;4840246;29;20030;-70
2021/04/06 06:59:52;;;;;;;11.85;5.22;;;179.90;1894.40;;;;;;4823090;29;20044;-70
2021/04/06 07:02:27;;;;;;;17.40;6.97;;;179.90;1894.40;;;;;;4823864;29;20033;-71
2021/04/06 07:05:07;;;;;;;13.95;4.65;;;179.80;1868.80;;;;;;4840261;29;20025;-70
2021/04/06 07:07:49;;;;;;;22.70;6.30;;;179.60;1868.80;;;;;;4821689;29;20026;-70
2021/04/06 07:10:17;;;;;;;11.50;4.05;;;179.70;1868.80;;;;;;4824001;29;20407;-71
2021/04/06 07:12:50;;;;;;;14.07;4.85;;;179.60;1868.80;;;;;;4822848;29;20038;-70
2021/04/06 07:15:16;;;;;;;17.45;6.32;;;179.50;1868.80;;;;;;4839623;29;20053;-70
2021/04/06 07:17:43;;;;;;;15.82;4.00;;;179.60;1868.80;;;;;;4823883;29;20029;-70
2021/04/06 07:20:16;;;;;;;9.98;3.88;;;179.60;1843.20;;;;;;4823730;29;20133;-70
2021/04/06 07:22:44;;;;;;;6.05;3.55;;;179.60;1843.20;;;;;;4838391;29;20109;-72
2021/04/06 07:25:11;;;;;;;9.88;4.47;;;179.60;1843.20;;;;;;4839977;29;20452;-71
2021/04/06 07:27:37;;;;;;;6.78;4.20;;;179.60;1843.20;;;;;;4840576;29;20134;-72
2021/04/06 07:30:04;;;;;;;15.50;4.03;;;179.50;1843.20;;;;;;4823739;29;20484;-71
2021/04/06 07:32:31;;;;;;;10.20;4.35;;;179.50;1843.20;;;;;;4839978;29;20420;-70
2021/04/06 07:34:57;;;;;;;7.13;4.78;;;179.40;1843.20;;;;;;4823640;29;20018;-70
2021/04/06 07:37:23;;;;;;;9.55;3.72;;;179.50;1843.20;;;;;;4839777;29;20086;-71
2021/04/06 07:39:54;;;;;;;7.45;3.42;;;179.50;1843.20;;;;;;4822913;29;20568;-70
2021/04/06 07:42:20;;;;;;;10.05;4.00;;;179.50;1817.60;;;;;;4822754;29;20026;-70
2021/04/06 07:44:46;;;;;;;8.45;3.90;;;179.70;1792.00;;;;;;4823594;29;20403;-70
2021/04/06 07:47:12;;;;;;;9.70;3.42;;;179.60;1792.00;;;;;;4838724;29;20030;-70
2021/04/06 07:49:38;;;;;;;10.80;3.15;;;179.60;1792.00;;;;;;4839161;29;20029;-70
2021/04/06 07:52:19;;;;;;;9.10;3.40;;;179.50;1817.60;;;;;;4839207;29;20014;-71
2021/04/06 07:54:47;;;;;;;7.65;2.90;;;179.70;1792.00;;;;;;4838985;29;20495;-71
2021/04/06 07:57:13;;;;;;;8.05;3.28;;;179.70;1792.00;;;;;;4838443;29;20079;-71
2021/04/06 07:59:42;;;;;;;14.38;4.53;;;179.80;1792.00;;;;;;4833158;29;20034;-71
2021/04/06 08:02:08;;;;;;;10.07;5.70;;;180.00;1792.00;;;;;;4840081;29;20038;-71
2021/04/06 08:04:39;;;;;;;15.80;5.65;;;180.10;1766.40;;;;;;4836912;29;20101;-72
2021/04/06 08:07:21;;;;;;;17.50;5.75;;;180.10;1766.40;;;;;;4821811;29;20107;-71
2021/04/06 08:09:47;;;;;;;8.75;3.97;;;204.90;1715.20;;;;;;4838578;29;20484;-72
2021/04/06 08:12:28;;;;;;;13.40;5.20;;;204.90;1715.20;;;;;;4822683;29;20036;-72
2021/04/06 08:15:02;;;;;;;8.75;4.07;;;205.00;1689.60;;;;;;4823357;29;20026;-71
2021/04/06 08:17:28;;;;;;;11.85;6.38;;;204.90;1689.60;;;;;;4837150;29;20090;-72
2021/04/06 08:20:29;;;;;;;9.10;4.10;;;205.10;1689.60;;;;;;4837970;29;20030;-71
2021/04/06 08:23:00;;;;;;;9.10;3.83;;;205.30;1664.00;;;;;;4833099;29;20415;-71
2021/04/06 08:25:29;;;;;;;9.73;3.88;;;205.10;1664.00;;;;;;4836134;29;20067;-70
2021/04/06 08:27:59;;;;;;;12.95;3.90;;;205.30;1664.00;;;;;;4835219;29;20065;-70
2021/04/06 08:30:34;;;;;;;5.28;3.00;;;205.50;1638.40;;;;;;4838493;29;20034;-71
2021/04/06 08:33:00;;;;;;;16.50;5.88;;;205.30;1612.80;;;;;;4818523;29;20065;-70
2021/04/06 08:35:49;;;;;;;8.35;2.65;;;205.10;1587.20;;;;;;4833496;29;20052;-70
2021/04/06 08:38:32;;;;;;;5.20;2.35;;;204.90;1561.60;;;;;;4838514;29;20029;-70
2021/04/06 08:41:10;;;;;;;7.45;3.20;;;204.80;1587.20;;;;;;4836695;29;20021;-70
2021/04/06 08:43:35;;;;;;;8.63;3.83;;;204.80;1561.60;;;;;;4819949;29;20029;-70
2021/04/06 08:46:04;;;;;;;10.15;3.40;;;204.90;1561.60;;;;;;4831454;29;20498;-70
2021/04/06 08:48:49;;;;;;;8.95;5.05;;;204.80;1587.20;;;;;;4838476;29;20030;-70
2021/04/06 08:51:39;;;;;;;6.43;4.60;;;205.10;1561.60;;;;;;4820297;29;20034;-74
2021/04/06 08:54:07;;;;;;;7.80;4.40;;;205.10;1536.00;;;;;;4821713;29;20037;-75
2021/04/06 08:56:34;;;;;;;11.77;5.38;;;205.30;1510.40;;;;;;4838341;29;20045;-72
2021/04/06 08:59:32;;;;;;;13.48;5.00;;;205.50;1510.40;;;;;;4836634;29;20026;-73
2021/04/06 09:02:01;;;;;;;14.32;5.57;;;205.40;1484.80;;;;;;4839516;29;20098;-72
2021/04/06 09:04:30;;;;;;;9.18;3.38;;;205.30;1536.00;;;;;;4840403;29;20042;-74
2021/04/06 09:06:57;;;;;;;10.30;3.38;;;205.10;1510.40;;;;;;4841653;29;20030;-74
2021/04/06 09:09:28;;;;;;;6.68;3.63;;;204.80;1536.00;;;;;;4844479;29;20045;-72
2021/04/06 09:11:59;;;;;;;5.43;3.47;;;204.90;1536.00;;;;;;4825870;29;20057;-72
2021/04/06 09:14:30;;;;;;;5.72;2.97;;;205.00;1536.00;;;;;;4842560;29;20547;-70
2021/04/06 09:16:56;;;;;;;6.85;3.28;;;204.90;1536.00;;;;;;4840449;29;20476;-74
2021/04/06 09:19:24;;;;;;;7.68;2.80;;;204.80;1510.40;;;;;;4843564;29;20086;-70
2021/04/06 09:21:52;;;;;;;10.98;4.88;;;180.10;1536.00;;;;;;4842390;29;20038;-71
2021/04/06 09:24:19;;;;;;;7.43;3.72;;;180.00;1536.00;;;;;;4842395;29;20257;-72
2021/04/06 09:26:49;;;;;;;12.05;5.97;;;180.00;1536.00;;;;;;4842269;29;20551;-71
2021/04/06 09:29:33;;;;;;;5.55;3.03;;;180.00;1561.60;;;;;;4825932;29;20050;-71
2021/04/06 09:32:00;;;;;;;8.73;4.15;;;180.10;1510.40;;;;;;4841270;29;20022;-71
2021/04/06 09:34:47;;;;;;;13.00;6.22;;;180.00;1510.40;;;;;;4840550;29;20026;-70
2021/04/06 09:37:16;;;;;;;7.30;3.58;;;180.00;1536.00;;;;;;4836777;29;20022;-69
2021/04/06 09:39:49;;;;;;;10.60;4.18;;;180.00;1510.40;;;;;;4840697;29;20022;-70
2021/04/06 09:42:16;;;;;;;6.70;4.03;;;204.90;1510.40;;;;;;4834830;29;20034;-70
2021/04/06 09:44:45;;;;;;;6.97;3.58;;;205.00;1459.20;;;;;;4837305;29;20075;-72
2021/04/06 09:47:16;;;;;;;8.93;3.42;;;205.00;1484.80;;;;;;4822218;29;20049;-71
2021/04/06 09:49:47;;;;;;;5.45;2.95;;;205.00;1484.80;;;;;;4832467;29;20484;-72
2021/04/06 09:52:20;;;;;;;10.23;4.05;;;204.80;1510.40;;;;;;4837041;29;20026;-70
2021/04/06 09:54:58;;;;;;;4.55;2.85;;;205.10;1484.80;;;;;;4835351;29;20480;-71
2021/04/06 09:57:33;;;;;;;8.02;2.95;;;205.00;1484.80;;;;;;4820505;29;20080;-71
2021/04/06 09:59:59;;;;;;;7.28;3.67;;;205.00;1459.20;;;;;;4836091;29;20033;-69
2021/04/06 10:02:29;;;;;;;6.57;3.33;;;205.10;1459.20;;;;;;4838879;29;20535;-69
2021/04/06 10:04:56;;;;;;;6.97;3.83;;;205.10;1484.80;;;;;;4831393;29;20026;-69
2021/04/06 10:07:28;;;;;;;23.10;5.95;;;205.00;1510.40;;;;;;4836936;29;20029;-69
2021/04/06 10:10:16;;;;;;;10.20;3.92;;;205.20;1484.80;;;;;;4836248;29;20361;-70
2021/04/06 10:12:42;;;;;;;6.88;3.40;;;205.20;1484.80;;;;;;4838043;29;20018;-69
2021/04/06 10:15:09;;;;;;;9.48;4.45;;;205.10;1484.80;;;;;;4839090;29;20028;-69
2021/04/06 10:17:41;;;;;;;5.68;3.05;;;204.90;1510.40;;;;;;4833286;29;20027;-72
2021/04/06 10:20:10;;;;;;;8.27;4.07;;;204.90;1510.40;;;;;;4838415;29;20037;-71
2021/04/06 10:22:59;;;;;;;8.63;3.72;;;180.00;1536.00;;;;;;4836407;29;20106;-70
2021/04/06 10:25:27;;;;;;;7.70;3.45;;;179.80;1561.60;;;;;;4781860;30;20062;-72
2021/04/06 10:27:58;;;;;;;9.60;5.40;;;179.80;1561.60;;;;;;4779917;30;20051;-72
2021/04/06 10:30:39;;;;;;;11.30;5.20;;;179.80;1587.20;;;;;;4768297;30;20094;-72
2021/04/06 10:33:12;;;;;;;16.58;6.63;;;179.80;1587.20;;;;;;4776610;30;20028;-72
2021/04/06 10:35:47;;;;;;;13.13;5.13;;;179.90;1587.20;;;;;;4757834;30;20059;-70
2021/04/06 10:38:35;;;;;;;12.20;6.65;;;179.80;1587.20;;;;;;4777511;30;20503;-69
2021/04/06 10:41:25;;;;;;;18.55;9.15;;;179.70;1612.80;;;;;;4777514;30;20116;-70
2021/04/06 10:43:52;;;;;;;21.88;8.38;;;179.60;1638.40;;;;;;4768230;30;20456;-69
2021/04/06 10:46:22;;;;;;;11.63;5.57;;;179.70;1612.80;;;;;;4772168;30;20283;-69
2021/04/06 10:49:06;;;;;;;17.80;7.53;;;179.70;1638.40;;;;;;4777387;30;20470;-71
2021/04/06 10:51:34;;;;;;;8.55;4.45;;;179.80;1612.80;;;;;;4760593;30;20032;-72
2021/04/06 10:54:12;;;;;;;13.30;5.43;;;179.70;1612.80;;;;;;4755622;30;20028;-72
2021/04/06 10:56:58;;;;;;;12.10;3.80;;;179.80;1587.20;;;;;;4759164;30;20070;-69
2021/04/06 10:59:33;;;;;;;10.13;4.10;;;179.70;1587.20;;;;;;4779987;30;20506;-72
2021/04/06 11:02:00;;;;;;;11.77;4.53;;;179.50;1612.80;;;;;;4795977;29;20056;-71
2021/04/06 11:04:28;;;;;;;10.10;3.72;;;179.40;1638.40;;;;;;4838577;29;20069;-71
2021/04/06 11:06:59;;;;;;;9.07;3.28;;;179.30;1664.00;;;;;;4836955;29;20482;-71
2021/04/06 11:09:48;;;;;;;17.02;4.45;;;179.20;1664.00;;;;;;4838423;29;20393;-72
2021/04/06 11:12:16;;;;;;;7.18;3.58;;;179.30;1715.20;;;;;;4766580;30;20058;-72
2021/04/06 11:14:44;;;;;;;9.45;4.03;;;179.20;1740.80;;;;;;4763521;30;20066;-73
2021/04/06 11:17:12;;;;;;;25.83;8.35;;;154.50;1766.40;;;;;;4765826;30;20079;-73
2021/04/06 11:19:40;;;;;;;14.65;7.03;;;154.40;1792.00;;;;;;4762734;30;20040;-74
2021/04/06 11:22:12;;;;;;;19.75;5.60;;;154.10;1843.20;;;;;;4750632;30;20110;-73
2021/04/06 11:24:39;;;;;;;8.98;4.50;;;154.10;1868.80;;;;;;4765367;30;20912;-74
2021/04/06 11:27:06;;;;;;;10.93;3.97;;;154.00;1894.40;;;;;;4748320;30;20127;-74
2021/04/06 11:29:34;;;;;;;10.98;4.85;;;153.90;1920.00;;;;;;4766279;30;20048;-73
2021/04/06 11:32:11;;;;;;;7.80;5.03;;;153.80;1945.60;;;;;;4764329;30;20036;-73
2021/04/06 11:34:38;;;;;;;10.25;4.10;;;153.70;1971.20;;;;;;4766232;30;20031;-73
2021/04/06 11:37:05;;;;;;;10.25;3.63;;;153.60;1945.60;;;;;;4764777;30;20036;-73
2021/04/06 11:39:35;;;;;;;9.60;4.28;;;153.60;1971.20;;;;;;4762622;30;20040;-73
2021/04/06 11:42:03;;;;;;;9.52;3.67;;;128.90;1996.80;;;;;;4749612;30;20042;-73
2021/04/06 11:44:30;;;;;;;9.15;4.78;;;128.90;2048.00;;;;;;4765543;30;20052;-73
2021/04/06 11:46:58;;;;;;;8.45;4.60;;;128.80;2073.60;;;;;;4763611;30;20075;-73
2021/04/06 11:49:24;;;;;;;10.15;5.47;;;128.80;2099.20;;;;;;4807583;29;20088;-74
2021/04/06 11:51:49;;;;;;;14.18;6.00;;;128.80;2124.80;;;;;;4840388;29;20491;-72
2021/04/06 11:54:17;;;;;;;8.90;4.50;;;128.80;2150.40;;;;;;4837983;29;20057;-73
2021/04/06 11:56:44;;;;;;;8.65;4.20;;;128.80;2124.80;;;;;;4823927;29;20026;-71
2021/04/06 11:59:10;;;;;;;11.23;6.32;;;128.50;2176.00;;;;;;4823658;29;20053;-73
2021/04/06 12:01:35;;;;;;;17.33;8.20;;;128.60;2201.60;;;;;;4823535;29;20432;-73
2021/04/06 12:04:03;;;;;;;9.32;7.50;;;128.70;2227.20;;;;;;4839175;29;20037;-74
2021/04/06 12:06:29;;;;;;;9.00;6.25;;;128.90;2201.60;;;;;;4837049;29;20453;-71
2021/04/06 12:08:55;;;;;;;11.98;7.07;;;128.90;2201.60;;;;;;4822885;29;20038;-74
2021/04/06 12:11:21;;;;;;;12.70;5.15;;;153.60;2227.20;;;;;;4821400;29;20034;-72
2021/04/06 12:13:47;;;;;;;9.70;5.28;;;153.60;2176.00;;;;;;4839599;29;20032;-73
2021/04/06 12:16:14;;;;;;;9.23;5.35;;;153.60;2227.20;;;;;;4814745;29;20118;-73
2021/04/06 12:18:40;;;;;;;14.90;6.82;;;153.60;2227.20;;;;;;4838106;29;20031;-73
2021/04/06 12:21:09;;;;;;;7.38;4.18;;;153.90;2176.00;;;;;;4839664;29;20066;-73